Time;durP1;ratioP1;P1;durP2;ratioP2;P2;SDS_P1;SDS_P2;PMS_P1;PMS_P2;Temp;Humidity;BMP_temperature;BMP_pressure;BME280_temperature;BME280_humidity;BME280_pressure;Samples;Min_cycle;Max_cycle;Signal;HPM_P1;HPM_P2
2022/11/22 00:00:42;;;;;;;17.55;2.10;;;4.30;99.90;;;;;;5037222;28;20060;-72
2022/11/22 00:03:10;;;;;;;14.35;1.67;;;4.40;99.90;;;;;;5036005;28;20050;-72
2022/11/22 00:05:37;;;;;;;16.13;1.70;;;4.40;99.90;;;;;;5037170;28;20045;-72
2022/11/22 00:08:05;;;;;;;15.18;1.63;;;4.40;99.90;;;;;;5036861;28;20046;-72
2022/11/22 00:10:33;;;;;;;17.38;1.80;;;4.40;99.90;;;;;;5035780;28;20057;-72
2022/11/22 00:13:01;;;;;;;18.20;2.30;;;4.40;99.90;;;;;;5037255;28;20045;-72
2022/11/22 00:15:29;;;;;;;13.45;1.58;;;4.40;99.90;;;;;;5037075;28;20060;-71
2022/11/22 00:17:56;;;;;;;10.50;1.30;;;4.60;99.90;;;;;;5035626;28;20045;-72
2022/11/22 00:20:24;;;;;;;8.82;1.38;;;4.30;99.90;;;;;;5036645;28;20360;-72
2022/11/22 00:22:51;;;;;;;9.45;1.65;;;4.30;99.90;;;;;;5035703;28;20049;-73
2022/11/22 00:25:19;;;;;;;6.93;1.20;;;4.30;99.90;;;;;;5035785;28;20041;-72
2022/11/22 00:27:46;;;;;;;16.75;1.40;;;4.30;99.90;;;;;;5036688;28;20053;-72
2022/11/22 00:30:14;;;;;;;8.93;1.40;;;4.30;99.90;;;;;;5035677;28;20045;-72
2022/11/22 00:32:41;;;;;;;12.40;1.30;;;4.30;99.90;;;;;;5035640;28;20044;-72
2022/11/22 00:35:10;;;;;;;11.25;1.30;;;4.30;99.90;;;;;;5036381;28;20480;-72
2022/11/22 00:37:38;;;;;;;10.68;1.55;;;4.80;99.90;;;;;;5017371;28;20053;-71
2022/11/22 00:40:06;;;;;;;15.63;1.42;;;4.30;99.90;;;;;;5016913;28;20350;-72
2022/11/22 00:42:33;;;;;;;9.38;1.20;;;4.30;99.90;;;;;;5015497;28;20056;-72
2022/11/22 00:45:01;;;;;;;10.23;1.35;;;4.30;99.90;;;;;;5016401;28;20127;-72
2022/11/22 00:47:29;;;;;;;10.10;1.08;;;4.40;99.90;;;;;;4999371;28;20065;-73
2022/11/22 00:49:56;;;;;;;9.18;1.38;;;4.30;99.90;;;;;;4997959;28;20057;-72
2022/11/22 00:52:24;;;;;;;7.63;0.80;;;4.30;99.90;;;;;;5016641;28;20491;-73
2022/11/22 00:54:51;;;;;;;12.93;1.42;;;4.30;99.90;;;;;;5016417;28;20056;-72
2022/11/22 00:57:22;;;;;;;10.77;1.48;;;4.30;99.90;;;;;;4982249;28;20065;-73
2022/11/22 00:59:49;;;;;;;;;;;4.40;99.90;;;;;;5016718;28;20491;-72
2022/11/22 01:02:17;;;;;;;8.75;1.15;;;4.30;99.90;;;;;;5016145;28;19932;-72
2022/11/22 01:04:44;;;;;;;11.85;1.15;;;4.30;99.90;;;;;;5016118;28;20059;-72
2022/11/22 01:07:12;;;;;;;7.75;1.52;;;4.30;99.90;;;;;;5016360;28;20050;-71
2022/11/22 01:09:40;;;;;;;15.57;1.30;;;4.40;99.90;;;;;;5014901;28;20372;-72
2022/11/22 01:12:08;;;;;;;7.28;1.15;;;4.40;99.90;;;;;;5016196;28;20046;-72
2022/11/22 01:14:35;;;;;;;13.93;1.50;;;4.40;99.90;;;;;;5016096;28;20064;-72
2022/11/22 01:17:02;;;;;;;8.35;1.23;;;4.40;99.90;;;;;;4997674;28;20049;-72
2022/11/22 01:19:30;;;;;;;12.38;1.40;;;4.40;99.90;;;;;;5015769;28;20054;-73
2022/11/22 01:21:58;;;;;;;8.00;1.13;;;4.70;99.90;;;;;;4998748;28;20125;-71
2022/11/22 01:24:25;;;;;;;14.05;1.30;;;4.40;99.90;;;;;;5014741;28;20459;-72
2022/11/22 01:26:53;;;;;;;10.77;1.30;;;4.50;99.90;;;;;;5015868;28;20046;-72
2022/11/22 01:29:20;;;;;;;10.55;1.33;;;4.50;99.90;;;;;;5014529;28;20037;-72
2022/11/22 01:31:48;;;;;;;7.05;0.93;;;4.50;99.90;;;;;;5015600;28;20038;-72
2022/11/22 01:34:15;;;;;;;16.08;1.52;;;4.40;99.90;;;;;;4998544;28;20053;-73
2022/11/22 01:36:42;;;;;;;7.32;1.17;;;5.10;99.90;;;;;;5014559;28;20358;-72
2022/11/22 01:39:10;;;;;;;7.30;1.17;;;4.40;99.90;;;;;;4998540;28;20046;-72
2022/11/22 01:41:37;;;;;;;9.63;1.10;;;4.40;99.90;;;;;;5015386;28;20349;-73
2022/11/22 01:44:24;;;;;;;6.97;0.90;;;4.40;99.90;;;;;;5014057;28;20042;-73
2022/11/22 01:47:02;;;;;;;10.50;1.35;;;4.40;99.90;;;;;;4998498;28;20054;-72
2022/11/22 01:49:34;;;;;;;12.18;1.83;;;4.40;99.90;;;;;;5014432;28;20056;-73
2022/11/22 01:52:07;;;;;;;6.03;1.10;;;4.40;99.90;;;;;;5015436;28;20046;-72
2022/11/22 01:54:39;;;;;;;12.27;1.27;;;5.00;99.90;;;;;;5015477;28;20049;-73
2022/11/22 01:57:12;;;;;;;5.85;1.10;;;4.90;99.90;;;;;;4997097;28;20046;-73
2022/11/22 01:59:44;;;;;;;6.57;1.10;;;4.50;99.90;;;;;;5015562;28;20049;-72
2022/11/22 02:02:12;;;;;;;9.20;1.10;;;4.60;99.90;;;;;;4997975;28;20046;-73
2022/11/22 02:04:41;;;;;;;10.60;1.27;;;4.60;99.90;;;;;;5014462;28;20487;-71
2022/11/22 02:07:30;;;;;;;6.18;0.98;;;4.60;99.90;;;;;;5015072;28;20045;-73
2022/11/22 02:09:58;;;;;;;5.40;0.98;;;4.70;99.90;;;;;;5013876;28;20064;-73
2022/11/22 02:12:30;;;;;;;6.47;1.20;;;4.70;99.90;;;;;;5015081;28;20037;-72
2022/11/22 02:14:58;;;;;;;5.75;0.98;;;4.70;99.90;;;;;;5015131;28;20388;-73
2022/11/22 02:17:26;;;;;;;8.48;1.00;;;4.70;99.90;;;;;;5013940;28;20064;-73
2022/11/22 02:19:54;;;;;;;6.55;1.15;;;4.70;99.90;;;;;;5015016;28;20053;-73
2022/11/22 02:22:44;;;;;;;14.13;1.38;;;4.60;99.90;;;;;;5014020;28;20357;-73
2022/11/22 02:25:26;;;;;;;8.75;1.27;;;4.60;99.90;;;;;;5014636;28;20053;-72
2022/11/22 02:27:54;;;;;;;11.20;1.20;;;4.60;99.90;;;;;;5015269;28;20042;-72
2022/11/22 02:30:22;;;;;;;12.73;1.02;;;4.60;99.90;;;;;;5013702;28;20061;-72
2022/11/22 02:32:50;;;;;;;6.53;0.90;;;4.70;99.90;;;;;;5014861;28;20050;-72
2022/11/22 02:35:23;;;;;;;9.18;1.10;;;4.80;99.90;;;;;;5014961;28;20049;-72
2022/11/22 02:38:00;;;;;;;7.05;0.90;;;4.80;99.90;;;;;;5013465;28;20045;-73
2022/11/22 02:40:32;;;;;;;10.82;1.17;;;4.90;99.90;;;;;;5014730;28;20062;-72
2022/11/22 02:43:12;;;;;;;8.15;1.13;;;5.00;99.90;;;;;;5013819;28;20075;-72
2022/11/22 02:45:39;;;;;;;4.38;0.93;;;5.00;99.90;;;;;;5014700;28;20041;-72
2022/11/22 02:48:12;;;;;;;7.15;0.80;;;5.00;99.90;;;;;;5014518;28;20054;-72
2022/11/22 02:50:40;;;;;;;7.95;0.85;;;5.30;99.90;;;;;;5013481;28;20049;-72
2022/11/22 02:53:09;;;;;;;10.73;0.93;;;5.10;99.90;;;;;;5014720;28;20049;-72
2022/11/22 02:55:37;;;;;;;8.40;1.38;;;5.10;99.90;;;;;;5014763;28;20054;-72
2022/11/22 02:58:05;;;;;;;9.93;1.13;;;6.20;99.90;;;;;;5018457;28;20380;-72
2022/11/22 03:00:35;;;;;;;10.30;1.17;;;5.10;99.90;;;;;;5018369;28;20049;-72
2022/11/22 03:03:02;;;;;;;5.13;0.90;;;5.30;99.90;;;;;;5017862;28;20065;-72
2022/11/22 03:05:30;;;;;;;9.88;1.30;;;5.20;99.90;;;;;;5018684;28;20042;-72
2022/11/22 03:07:58;;;;;;;9.75;1.10;;;5.20;99.90;;;;;;5018682;28;20046;-72
2022/11/22 03:10:25;;;;;;;8.02;1.20;;;5.20;99.90;;;;;;5017159;28;20053;-73
2022/11/22 03:12:53;;;;;;;9.57;1.13;;;5.20;99.90;;;;;;5018475;28;20049;-73
2022/11/22 03:15:21;;;;;;;7.07;0.90;;;5.20;99.90;;;;;;5018184;28;20053;-73
2022/11/22 03:17:48;;;;;;;6.80;1.05;;;5.30;99.90;;;;;;5017118;28;20046;-72
2022/11/22 03:20:16;;;;;;;5.70;0.70;;;5.20;99.90;;;;;;5018054;28;20049;-72
2022/11/22 03:22:43;;;;;;;7.57;1.02;;;5.30;99.90;;;;;;5000108;28;20041;-71
2022/11/22 03:25:10;;;;;;;6.38;0.90;;;5.30;99.90;;;;;;5017969;28;20368;-71
2022/11/22 03:27:38;;;;;;;8.85;1.00;;;5.20;99.90;;;;;;5018092;28;20041;-72
2022/11/22 03:30:06;;;;;;;7.15;1.05;;;5.20;99.90;;;;;;5016849;28;20075;-72
2022/11/22 03:32:33;;;;;;;6.63;0.88;;;5.20;99.90;;;;;;5017927;28;20065;-72
2022/11/22 03:35:01;;;;;;;14.10;1.00;;;5.70;99.90;;;;;;5017991;28;20053;-72
2022/11/22 03:37:29;;;;;;;7.43;1.02;;;5.20;99.90;;;;;;5016737;28;20085;-72
2022/11/22 03:39:57;;;;;;;10.18;1.13;;;5.20;99.90;;;;;;5017728;28;20045;-72
2022/11/22 03:42:24;;;;;;;7.82;1.10;;;5.20;99.90;;;;;;5016510;28;20479;-72
2022/11/22 03:44:52;;;;;;;10.13;1.17;;;5.20;99.90;;;;;;5000961;28;20053;-72
2022/11/22 03:47:19;;;;;;;7.55;0.90;;;5.20;99.90;;;;;;5018052;28;20042;-72
2022/11/22 03:49:46;;;;;;;9.80;1.10;;;5.20;99.90;;;;;;5016481;28;20053;-72
2022/11/22 03:52:14;;;;;;;14.80;1.25;;;5.10;99.90;;;;;;5017435;28;20038;-72
2022/11/22 03:54:41;;;;;;;8.50;1.27;;;5.10;99.90;;;;;;5017344;28;20054;-72
2022/11/22 03:57:09;;;;;;;7.85;1.30;;;5.10;99.90;;;;;;5016518;28;20046;-73
2022/11/22 03:59:36;;;;;;;6.60;0.93;;;5.00;99.90;;;;;;5017350;28;20053;-73
2022/11/22 04:02:04;;;;;;;7.22;1.23;;;5.10;99.90;;;;;;5017737;28;20357;-72
2022/11/22 04:04:31;;;;;;;10.80;1.10;;;5.10;99.90;;;;;;4999080;28;20057;-72
2022/11/22 04:06:59;;;;;;;4.13;0.70;;;5.10;99.90;;;;;;5000325;28;20038;-72
2022/11/22 04:09:26;;;;;;;9.85;0.90;;;5.10;99.90;;;;;;5015979;28;20381;-72
2022/11/22 04:11:54;;;;;;;11.38;1.08;;;5.00;99.90;;;;;;5017170;28;20046;-73
2022/11/22 04:17:12;;;;;;;11.35;1.35;;;5.00;99.90;;;;;;4998760;28;20480;-73
2022/11/22 04:21:32;;;;;;;8.85;0.90;;;5.00;99.90;;;;;;5016987;28;20046;-73
2022/11/22 04:22:27;;;;;;;6.45;1.02;;;5.10;99.90;;;;;;5015989;28;20050;-72
2022/11/22 04:25:12;;;;;;;10.50;1.02;;;5.10;99.90;;;;;;5016875;28;20046;-72
2022/11/22 04:27:40;;;;;;;11.52;1.17;;;5.10;99.90;;;;;;5017071;28;20050;-72
2022/11/22 04:30:08;;;;;;;6.65;1.00;;;5.10;99.90;;;;;;5015683;28;20476;-73
2022/11/22 04:32:44;;;;;;;7.53;1.05;;;5.10;99.90;;;;;;5017100;28;20069;-72
2022/11/22 04:35:15;;;;;;;8.52;1.20;;;5.10;99.90;;;;;;5017160;28;20477;-72
2022/11/22 04:37:50;;;;;;;9.48;1.08;;;5.40;99.90;;;;;;5015612;28;20057;-72
2022/11/22 04:40:17;;;;;;;10.43;0.98;;;5.10;99.90;;;;;;5016853;28;20053;-72
2022/11/22 04:45:31;;;;;;;11.35;1.20;;;5.10;99.90;;;;;;5016364;28;20054;-72
2022/11/22 04:47:58;;;;;;;9.75;1.17;;;5.10;99.90;;;;;;4999423;28;20038;-72
2022/11/22 04:53:17;;;;;;;9.18;1.10;;;5.10;99.90;;;;;;5016463;28;20045;-72
2022/11/22 04:55:45;;;;;;;;;;;5.20;99.90;;;;;;4998685;28;20050;-72
2022/11/22 04:58:13;;;;;;;7.88;0.80;;;5.30;99.90;;;;;;5016263;28;19928;-72
2022/11/22 05:00:40;;;;;;;7.43;0.85;;;5.30;99.90;;;;;;4999083;28;20046;-72
2022/11/22 05:03:08;;;;;;;6.93;0.85;;;5.20;99.90;;;;;;5015266;28;20050;-72
2022/11/22 05:05:38;;;;;;;9.27;1.10;;;5.20;99.90;;;;;;5016221;28;20384;-73
2022/11/22 05:08:06;;;;;;;9.00;1.17;;;5.30;99.90;;;;;;5016101;28;20050;-72
2022/11/22 05:13:27;;;;;;;5.88;1.13;;;5.40;99.90;;;;;;4999174;28;20042;-73
2022/11/22 05:15:55;;;;;;;6.18;1.13;;;5.30;99.90;;;;;;5014980;28;20041;-73
2022/11/22 05:18:24;;;;;;;9.85;0.82;;;5.30;99.90;;;;;;5015967;28;20050;-72
2022/11/22 05:20:52;;;;;;;11.85;1.10;;;5.40;99.90;;;;;;5015629;28;20053;-73
2022/11/22 05:26:07;;;;;;;8.43;1.27;;;5.30;99.90;;;;;;5015865;28;20042;-71
2022/11/22 05:28:37;;;;;;;8.18;0.90;;;5.50;99.90;;;;;;5015608;28;20050;-72
2022/11/22 05:31:09;;;;;;;9.32;1.05;;;5.40;99.90;;;;;;5014721;28;20053;-72
2022/11/22 05:33:39;;;;;;;7.95;1.30;;;5.40;99.90;;;;;;5016145;28;20053;-72
2022/11/22 05:36:08;;;;;;;8.25;0.85;;;5.40;99.90;;;;;;5014698;28;20058;-73
2022/11/22 05:38:37;;;;;;;7.28;1.17;;;5.50;99.90;;;;;;5015514;28;20057;-73
2022/11/22 05:41:06;;;;;;;7.53;1.33;;;6.50;99.90;;;;;;5015405;28;20068;-73
2022/11/22 05:43:34;;;;;;;8.13;0.90;;;5.40;99.90;;;;;;5014391;28;20068;-72
2022/11/22 05:46:13;;;;;;;9.93;1.23;;;5.40;99.90;;;;;;5015400;28;20061;-72
2022/11/22 05:48:47;;;;;;;6.82;0.85;;;5.40;99.90;;;;;;4998573;28;20061;-72
2022/11/22 05:51:17;;;;;;;10.35;1.20;;;5.40;99.90;;;;;;5014290;28;20057;-72
2022/11/22 05:53:45;;;;;;;7.88;0.80;;;5.40;99.90;;;;;;5015229;28;20057;-73
2022/11/22 05:56:23;;;;;;;6.13;1.02;;;5.40;99.90;;;;;;4997465;28;20054;-73
2022/11/22 05:58:50;;;;;;;7.78;1.00;;;5.30;99.90;;;;;;5015353;28;20057;-73
2022/11/22 06:01:20;;;;;;;11.32;1.10;;;5.30;99.90;;;;;;5015483;28;20356;-73
2022/11/22 06:03:48;;;;;;;8.98;0.80;;;5.30;99.90;;;;;;5014025;28;20046;-72
2022/11/22 06:06:19;;;;;;;8.48;0.80;;;5.30;99.90;;;;;;5015273;28;20046;-72
2022/11/22 06:08:48;;;;;;;8.45;1.27;;;5.30;99.90;;;;;;5015253;28;20046;-72
2022/11/22 06:11:21;;;;;;;5.40;0.80;;;5.30;99.90;;;;;;4997038;28;20046;-73
2022/11/22 06:13:51;;;;;;;7.70;0.88;;;5.50;99.90;;;;;;5015258;28;20042;-73
2022/11/22 06:16:19;;;;;;;7.05;0.82;;;5.20;99.90;;;;;;5014170;28;20046;-72
2022/11/22 06:18:47;;;;;;;9.40;0.98;;;5.20;99.90;;;;;;5014909;28;20049;-72
2022/11/22 06:21:17;;;;;;;8.18;0.95;;;5.50;99.90;;;;;;5015263;28;20046;-73
2022/11/22 06:23:45;;;;;;;8.35;1.00;;;5.10;99.90;;;;;;5014395;28;20061;-72
2022/11/22 06:26:16;;;;;;;8.90;0.80;;;5.20;99.90;;;;;;5015050;28;20365;-73
2022/11/22 06:28:45;;;;;;;3.05;0.60;;;5.00;99.90;;;;;;5014885;28;20041;-72
2022/11/22 06:31:15;;;;;;;9.30;0.80;;;5.80;99.90;;;;;;5014432;28;20042;-73
2022/11/22 06:33:44;;;;;;;5.07;0.70;;;5.90;99.90;;;;;;5019233;28;20041;-72
2022/11/22 06:36:12;;;;;;;;;;;4.80;99.90;;;;;;5018533;28;20046;-73
2022/11/22 06:38:41;;;;;;;8.98;0.70;;;4.70;99.90;;;;;;5019216;28;19929;-72
2022/11/22 06:41:11;;;;;;;6.82;0.65;;;4.70;99.90;;;;;;5018969;28;20061;-72
2022/11/22 06:43:40;;;;;;;9.60;1.00;;;4.60;99.90;;;;;;5017633;28;20049;-72
2022/11/22 06:46:16;;;;;;;5.65;0.70;;;5.60;99.90;;;;;;5018687;28;20046;-72
2022/11/22 06:48:43;;;;;;;4.28;0.88;;;4.60;99.90;;;;;;5018802;28;20049;-73
2022/11/22 06:51:17;;;;;;;5.40;0.80;;;5.00;99.90;;;;;;5017705;28;20049;-73
2022/11/22 06:53:45;;;;;;;5.28;1.02;;;4.50;99.90;;;;;;5018919;28;20050;-73
2022/11/22 06:56:21;;;;;;;8.45;1.00;;;4.50;99.90;;;;;;5000801;28;20068;-73
2022/11/22 06:58:50;;;;;;;7.78;0.75;;;4.50;99.90;;;;;;5018913;28;20056;-73
2022/11/22 07:01:27;;;;;;;10.35;1.35;;;4.50;99.90;;;;;;5018447;28;20060;-72
2022/11/22 07:03:56;;;;;;;7.28;1.13;;;4.50;99.90;;;;;;5017577;28;20050;-72
2022/11/22 07:06:27;;;;;;;15.32;1.02;;;4.50;99.90;;;;;;5018232;28;20065;-72
2022/11/22 07:08:55;;;;;;;11.48;0.82;;;5.50;99.90;;;;;;5018254;28;20061;-72
2022/11/22 07:11:25;;;;;;;6.47;1.10;;;4.50;99.90;;;;;;4999829;28;20065;-72
2022/11/22 07:13:54;;;;;;;5.97;0.73;;;4.50;99.90;;;;;;5018597;28;20042;-72
2022/11/22 07:16:21;;;;;;;9.82;1.00;;;4.60;99.90;;;;;;5017162;28;20046;-72
2022/11/22 07:18:49;;;;;;;9.73;1.00;;;5.20;99.90;;;;;;5001162;28;20494;-73
2022/11/22 07:21:22;;;;;;;7.63;0.93;;;5.90;99.90;;;;;;5018030;28;20050;-72
2022/11/22 07:23:55;;;;;;;7.95;0.77;;;4.50;99.90;;;;;;5016899;28;20049;-72
2022/11/22 07:26:25;;;;;;;5.05;0.93;;;4.70;99.90;;;;;;5001277;28;20050;-72
2022/11/22 07:28:53;;;;;;;10.55;0.95;;;4.60;99.90;;;;;;5017889;28;20380;-73
2022/11/22 07:31:20;;;;;;;9.35;0.90;;;4.60;99.90;;;;;;5016730;28;20046;-73
2022/11/22 07:33:48;;;;;;;8.38;1.00;;;5.10;99.90;;;;;;5018026;28;20057;-72
2022/11/22 07:36:17;;;;;;;12.05;1.25;;;4.60;99.90;;;;;;5009375;28;20076;-72
2022/11/22 07:38:46;;;;;;;10.13;1.05;;;4.60;99.90;;;;;;5037633;28;20475;-72
2022/11/22 07:41:15;;;;;;;6.82;1.13;;;6.00;99.90;;;;;;5037438;28;20049;-73
2022/11/22 07:43:44;;;;;;;9.38;1.17;;;4.60;99.90;;;;;;5035895;28;20042;-73
2022/11/22 07:46:28;;;;;;;8.95;1.10;;;5.10;99.90;;;;;;5037227;28;20053;-74
2022/11/22 07:48:56;;;;;;;5.95;1.10;;;5.10;99.90;;;;;;5036642;28;20046;-74
2022/11/22 07:51:24;;;;;;;8.30;1.50;;;4.50;99.90;;;;;;5037136;28;20038;-73
2022/11/22 07:53:53;;;;;;;7.22;1.35;;;4.50;99.90;;;;;;5037156;28;20049;-73
2022/11/22 07:56:21;;;;;;;9.40;1.90;;;4.50;99.90;;;;;;5036069;28;20053;-73
2022/11/22 07:58:49;;;;;;;11.68;1.10;;;6.40;99.90;;;;;;5037077;28;20052;-73
2022/11/22 08:01:17;;;;;;;11.20;1.60;;;4.40;99.90;;;;;;5036673;28;20072;-74
2022/11/22 08:03:45;;;;;;;12.15;1.08;;;4.40;99.90;;;;;;5052131;28;20064;-73
2022/11/22 08:06:14;;;;;;;8.40;1.23;;;4.50;99.90;;;;;;5036924;28;20045;-73
2022/11/22 08:08:44;;;;;;;8.07;1.10;;;4.50;99.90;;;;;;5036322;28;20060;-73
2022/11/22 08:11:12;;;;;;;8.13;1.55;;;5.10;99.90;;;;;;5035751;28;20416;-74
2022/11/22 08:13:40;;;;;;;8.73;1.42;;;4.40;99.90;;;;;;5036818;28;20045;-74
2022/11/22 08:16:11;;;;;;;12.85;1.63;;;4.50;99.90;;;;;;5035425;28;20449;-75
2022/11/22 08:18:39;;;;;;;14.68;1.50;;;5.80;99.90;;;;;;5036757;28;20456;-73
2022/11/22 08:21:12;;;;;;;14.70;1.90;;;4.50;99.90;;;;;;5035921;28;20357;-73
2022/11/22 08:23:41;;;;;;;9.45;1.23;;;5.60;99.90;;;;;;5034758;28;20045;-73
2022/11/22 08:26:11;;;;;;;7.05;1.63;;;4.60;99.90;;;;;;5036317;28;20045;-74
2022/11/22 08:28:40;;;;;;;10.77;1.38;;;2.50;99.90;;;;;;5036448;28;20372;-73
2022/11/22 08:31:11;;;;;;;12.18;1.27;;;4.70;99.90;;;;;;5034917;28;20041;-73
2022/11/22 08:33:39;;;;;;;5.35;1.17;;;4.80;99.90;;;;;;5036233;28;20049;-73
2022/11/22 08:36:06;;;;;;;10.60;1.38;;;4.90;99.90;;;;;;5050616;28;20380;-73
2022/11/22 08:38:34;;;;;;;8.05;1.30;;;5.00;99.90;;;;;;5036253;28;20052;-73
2022/11/22 08:41:04;;;;;;;10.93;1.48;;;6.70;99.90;;;;;;5036147;28;20049;-73
2022/11/22 08:43:31;;;;;;;7.55;1.10;;;5.10;99.90;;;;;;5034913;28;20045;-73
2022/11/22 08:46:00;;;;;;;9.75;1.50;;;5.10;99.90;;;;;;5036426;28;20049;-73
2022/11/22 08:48:30;;;;;;;9.73;1.48;;;5.50;99.90;;;;;;5036072;28;20037;-74
2022/11/22 08:51:00;;;;;;;11.98;2.35;;;6.90;99.90;;;;;;5035079;28;20045;-74
2022/11/22 08:53:31;;;;;;;13.25;1.60;;;5.40;99.90;;;;;;5034866;28;20041;-74
2022/11/22 08:56:00;;;;;;;9.43;1.13;;;5.50;99.90;;;;;;5034362;28;20691;-73
2022/11/22 08:58:32;;;;;;;8.35;1.45;;;5.60;99.90;;;;;;5035128;28;20460;-73
2022/11/22 09:01:10;;;;;;;9.40;1.30;;;5.70;99.90;;;;;;5035136;28;20045;-74
2022/11/22 09:03:39;;;;;;;7.18;1.20;;;5.70;99.90;;;;;;5034879;28;20049;-73
2022/11/22 09:06:09;;;;;;;7.53;1.20;;;5.80;99.90;;;;;;5035980;28;20057;-73
2022/11/22 09:08:57;;;;;;;10.02;1.40;;;6.00;99.90;;;;;;5035037;28;20128;-73
2022/11/22 09:11:44;;;;;;;6.95;1.50;;;6.10;99.90;;;;;;5036018;28;20045;-73
2022/11/22 09:14:12;;;;;;;9.00;1.30;;;6.20;99.90;;;;;;5035763;28;20054;-73
2022/11/22 09:16:39;;;;;;;7.65;1.30;;;6.20;99.90;;;;;;5034625;28;20060;-73
2022/11/22 09:19:07;;;;;;;7.00;1.30;;;6.40;99.90;;;;;;5051472;28;20053;-73
2022/11/22 09:21:34;;;;;;;8.43;1.30;;;6.40;99.90;;;;;;5035657;28;20042;-73
2022/11/22 09:24:02;;;;;;;5.65;1.38;;;6.50;99.90;;;;;;5034405;28;20042;-73
2022/11/22 09:26:29;;;;;;;11.48;1.48;;;6.50;99.90;;;;;;5035894;28;20052;-73
2022/11/22 09:28:57;;;;;;;6.70;1.10;;;6.60;99.90;;;;;;5034688;28;20041;-73
2022/11/22 09:31:24;;;;;;;7.18;1.05;;;8.00;99.90;;;;;;5035212;28;20041;-73
2022/11/22 09:33:52;;;;;;;8.25;1.50;;;8.10;99.90;;;;;;5035511;28;20372;-73
2022/11/22 09:36:22;;;;;;;6.65;1.20;;;6.60;99.90;;;;;;5027056;28;20058;-73
2022/11/22 09:38:50;;;;;;;11.65;1.40;;;7.40;99.90;;;;;;5016023;28;20057;-73
2022/11/22 09:41:36;;;;;;;7.75;1.10;;;6.60;99.90;;;;;;4998581;28;20050;-73
2022/11/22 09:44:32;;;;;;;5.15;1.10;;;6.30;99.90;;;;;;5014685;28;20412;-73
2022/11/22 09:47:15;;;;;;;5.53;0.98;;;6.60;99.90;;;;;;5015537;28;20045;-73
2022/11/22 09:50:15;;;;;;;7.53;1.20;;;6.70;99.90;;;;;;5034513;28;20042;-73
2022/11/22 09:52:54;;;;;;;2.83;0.73;;;6.70;99.90;;;;;;5035691;28;20045;-74
2022/11/22 09:55:25;;;;;;;5.75;0.90;;;6.70;99.90;;;;;;5016604;28;20045;-73
2022/11/22 09:58:23;;;;;;;7.45;1.10;;;6.70;99.90;;;;;;5033861;28;20053;-73
2022/11/22 10:00:56;;;;;;;6.72;0.90;;;6.90;99.90;;;;;;5020786;28;20057;-72
2022/11/22 10:03:27;;;;;;;7.05;1.10;;;6.80;99.90;;;;;;5016695;28;20056;-73
2022/11/22 10:06:00;;;;;;;5.53;1.10;;;6.80;99.90;;;;;;5017438;28;20045;-73
2022/11/22 10:08:47;;;;;;;6.20;0.95;;;7.70;99.90;;;;;;5034712;28;20045;-74
2022/11/22 10:11:20;;;;;;;2.22;0.73;;;6.90;99.90;;;;;;5033579;28;20481;-73
2022/11/22 10:13:55;;;;;;;4.97;0.90;;;8.90;99.90;;;;;;5034706;28;20045;-73
2022/11/22 10:16:32;;;;;;;5.32;0.88;;;7.00;99.90;;;;;;5030267;28;20056;-73
2022/11/22 10:19:21;;;;;;;4.03;0.60;;;7.00;99.90;;;;;;5012151;28;20053;-73
2022/11/22 10:21:49;;;;;;;3.25;0.80;;;7.10;99.90;;;;;;5001326;28;20056;-73
2022/11/22 10:24:17;;;;;;;2.03;0.75;;;7.10;99.90;;;;;;5015952;28;20487;-73
2022/11/22 10:26:45;;;;;;;6.63;0.98;;;7.10;99.90;;;;;;5017061;28;20041;-73
2022/11/22 10:29:31;;;;;;;3.72;0.90;;;7.10;99.90;;;;;;5016087;28;20045;-73
2022/11/22 10:32:25;;;;;;;4.30;0.90;;;9.00;99.90;;;;;;5034466;28;20046;-73
2022/11/22 10:35:21;;;;;;;8.52;0.95;;;7.40;99.90;;;;;;5016985;28;20380;-73
2022/11/22 10:38:25;;;;;;;8.30;1.38;;;7.60;99.90;;;;;;5013606;28;20053;-73
2022/11/22 10:41:11;;;;;;;2.72;0.90;;;7.90;99.90;;;;;;5014606;28;20392;-74
2022/11/22 10:44:09;;;;;;;4.75;0.80;;;8.00;99.90;;;;;;5013767;28;20058;-77
2022/11/22 10:46:51;;;;;;;7.50;1.20;;;8.10;99.90;;;;;;5014416;28;20057;-77
2022/11/22 10:49:42;;;;;;;5.15;1.10;;;8.20;99.90;;;;;;4980151;28;20065;-71
2022/11/22 10:52:54;;;;;;;6.65;1.02;;;8.20;99.90;;;;;;5014428;28;20049;-72
2022/11/22 10:55:49;;;;;;;7.57;1.40;;;8.30;99.90;;;;;;4978265;28;20063;-73
2022/11/22 10:58:32;;;;;;;6.35;1.02;;;8.40;99.90;;;;;;5014720;28;20053;-73
2022/11/22 11:01:15;;;;;;;10.05;1.30;;;8.40;99.90;;;;;;5002395;28;20385;-73
2022/11/22 11:03:46;;;;;;;5.38;1.25;;;8.40;99.90;;;;;;5015980;28;20046;-73
2022/11/22 11:06:35;;;;;;;8.90;1.25;;;10.00;99.90;;;;;;5006747;28;20544;-73
2022/11/22 11:09:40;;;;;;;7.10;1.40;;;8.30;99.90;;;;;;5015970;28;20042;-73
2022/11/22 11:12:40;;;;;;;8.43;1.58;;;8.30;99.90;;;;;;4999621;28;20042;-72
2022/11/22 11:15:23;;;;;;;7.38;2.22;;;8.20;99.90;;;;;;5014131;28;20067;-74
2022/11/22 11:17:59;;;;;;;9.55;1.52;;;9.20;99.90;;;;;;5030295;28;20050;-74
2022/11/22 11:20:32;;;;;;;7.95;1.83;;;9.70;99.90;;;;;;5020707;28;20064;-74
2022/11/22 11:22:59;;;;;;;11.23;1.75;;;10.80;99.90;;;;;;5019835;28;20571;-74
2022/11/22 11:25:46;;;;;;;9.48;1.85;;;9.30;99.90;;;;;;4998009;28;20050;-74
2022/11/22 11:28:23;;;;;;;10.38;2.08;;;10.20;99.90;;;;;;5018507;28;20049;-75
2022/11/22 11:30:57;;;;;;;9.38;1.63;;;10.40;99.90;;;;;;5017276;28;20049;-76
2022/11/22 11:33:31;;;;;;;9.23;1.73;;;8.40;99.90;;;;;;5018266;28;20050;-74
2022/11/22 11:36:06;;;;;;;10.35;1.75;;;8.40;99.90;;;;;;5016873;28;20053;-73
2022/11/22 11:38:48;;;;;;;10.38;1.90;;;8.50;99.90;;;;;;5018354;28;20053;-73
2022/11/22 11:41:30;;;;;;;9.32;1.73;;;10.30;99.90;;;;;;5020020;28;20053;-72
2022/11/22 11:44:00;;;;;;;7.03;1.55;;;8.60;99.90;;;;;;5041287;28;20045;-72
2022/11/22 11:46:38;;;;;;;8.70;1.75;;;8.60;99.90;;;;;;5057597;28;20059;-73
2022/11/22 11:49:13;;;;;;;8.93;1.70;;;8.70;99.90;;;;;;5057031;28;20045;-74
2022/11/22 11:51:45;;;;;;;7.97;1.60;;;10.80;99.90;;;;;;5057341;28;20061;-72
2022/11/22 11:54:47;;;;;;;14.30;1.80;;;8.80;99.90;;;;;;5057359;28;20052;-73
2022/11/22 11:57:35;;;;;;;8.82;1.58;;;10.20;99.90;;;;;;4964716;28;20106;-72
2022/11/22 12:00:17;;;;;;;9.88;1.67;;;9.10;99.90;;;;;;5016799;28;20057;-72
2022/11/22 12:02:46;;;;;;;6.22;1.38;;;9.20;99.90;;;;;;5016411;28;20068;-72
2022/11/22 12:05:14;;;;;;;8.82;1.60;;;9.80;99.90;;;;;;5036578;28;20392;-73
2022/11/22 12:07:44;;;;;;;6.05;1.75;;;10.50;99.90;;;;;;5037408;28;20357;-75
2022/11/22 12:10:29;;;;;;;7.85;1.63;;;9.50;99.90;;;;;;5018006;28;20045;-77
2022/11/22 12:13:09;;;;;;;6.57;1.45;;;9.60;99.90;;;;;;5017680;28;20056;-75
2022/11/22 12:15:51;;;;;;;6.82;1.70;;;9.60;99.90;;;;;;5000717;28;20452;-75
2022/11/22 12:18:56;;;;;;;10.05;1.80;;;9.70;99.90;;;;;;5000624;28;20473;-76
2022/11/22 12:21:51;;;;;;;6.60;1.63;;;9.60;99.90;;;;;;5033552;28;20060;-72
2022/11/22 12:24:32;;;;;;;10.85;2.10;;;9.70;99.90;;;;;;5015707;28;20468;-72
2022/11/22 12:27:19;;;;;;;7.18;1.65;;;10.90;99.90;;;;;;5016358;28;20489;-72
2022/11/22 12:29:47;;;;;;;8.80;1.90;;;9.60;99.90;;;;;;5014325;28;20121;-71
2022/11/22 12:32:33;;;;;;;9.30;1.83;;;10.60;99.90;;;;;;4999364;28;20054;-73
2022/11/22 12:35:20;;;;;;;12.35;2.00;;;9.40;99.90;;;;;;5016389;28;20049;-73
2022/11/22 12:38:07;;;;;;;8.88;1.80;;;9.20;99.90;;;;;;5036646;28;20045;-75
2022/11/22 12:40:42;;;;;;;8.13;2.13;;;10.90;99.90;;;;;;5055857;28;20053;-76
2022/11/22 12:43:36;;;;;;;11.32;1.75;;;9.00;99.90;;;;;;5046312;28;20049;-75
2022/11/22 12:46:31;;;;;;;8.57;1.70;;;8.90;99.90;;;;;;5036699;28;20045;-76
2022/11/22 12:49:06;;;;;;;9.15;1.70;;;8.80;99.90;;;;;;5045929;28;20478;-75
2022/11/22 12:51:56;;;;;;;6.85;1.65;;;9.30;99.90;;;;;;5056039;28;20052;-76
2022/11/22 12:54:49;;;;;;;13.35;1.88;;;9.00;99.90;;;;;;5055860;28;20041;-76
2022/11/22 12:57:23;;;;;;;10.27;1.60;;;9.20;99.90;;;;;;5054315;28;20049;-76
2022/11/22 13:00:11;;;;;;;10.48;1.90;;;11.10;99.90;;;;;;5055864;28;20051;-76
2022/11/22 13:03:02;;;;;;;9.57;1.90;;;9.50;99.90;;;;;;5052156;28;20460;-75
2022/11/22 13:05:43;;;;;;;11.80;2.15;;;9.10;99.90;;;;;;5046019;28;20464;-75
2022/11/22 13:08:27;;;;;;;12.85;2.20;;;10.10;99.90;;;;;;5048983;28;20372;-76
2022/11/22 13:11:04;;;;;;;8.25;1.83;;;9.90;99.90;;;;;;5054740;28;20047;-74
2022/11/22 13:13:37;;;;;;;8.27;1.98;;;11.00;99.90;;;;;;5055438;28;20048;-75
2022/11/22 13:16:12;;;;;;;7.68;1.70;;;10.20;99.90;;;;;;5037424;28;20052;-75
2022/11/22 13:18:53;;;;;;;5.80;1.45;;;10.80;99.90;;;;;;5056349;28;20045;-75
2022/11/22 13:22:06;;;;;;;8.60;1.73;;;11.40;99.90;;;;;;5054905;28;20041;-75
2022/11/22 13:25:02;;;;;;;8.80;1.70;;;10.00;99.90;;;;;;5054068;28;20052;-75
2022/11/22 13:27:39;;;;;;;11.35;2.00;;;9.90;99.90;;;;;;5055969;28;20037;-75
2022/11/22 13:30:18;;;;;;;9.20;1.95;;;9.90;99.90;;;;;;5053898;28;20353;-75
2022/11/22 13:32:55;;;;;;;9.80;2.17;;;9.80;99.90;;;;;;5055116;28;20468;-75
2022/11/22 13:35:22;;;;;;;5.60;1.52;;;9.90;99.90;;;;;;5055906;28;20471;-75
2022/11/22 13:37:56;;;;;;;7.40;1.88;;;11.70;99.90;;;;;;5034945;28;20045;-75
2022/11/22 13:40:31;;;;;;;9.10;1.90;;;9.60;99.90;;;;;;5035513;28;20049;-75